createdAt,value
2022-11-24T00:00:36.075Z,7.16
2022-11-24T00:03:09.402Z,7.29
2022-11-24T00:05:43.294Z,7.37
2022-11-24T00:08:15.694Z,6.87
2022-11-24T00:10:48.240Z,6.08
2022-11-24T00:13:21.134Z,6.64
2022-11-24T00:15:51.496Z,7.18
2022-11-24T00:18:21.655Z,6.75
2022-11-24T00:20:55.159Z,7.01
2022-11-24T00:23:32.140Z,6.96
2022-11-24T00:26:10.180Z,6.82
2022-11-24T00:28:42.235Z,7.15
2022-11-24T00:31:21.062Z,7.28
2022-11-24T00:33:55.895Z,6.91
2022-11-24T00:36:27.394Z,6.37
2022-11-24T00:39:02.704Z,6.35
2022-11-24T00:41:33.193Z,6.62
2022-11-24T00:44:04.478Z,6.83
2022-11-24T00:46:34.836Z,6.31
2022-11-24T00:49:04.975Z,6.27
2022-11-24T00:51:35.197Z,6.57
2022-11-24T00:54:06.660Z,6.18
2022-11-24T00:56:37.495Z,6.72
2022-11-24T00:59:16.980Z,6.81
2022-11-24T01:01:49.323Z,6.65
2022-11-24T01:04:19.434Z,6.45
2022-11-24T01:06:52.434Z,6.22
2022-11-24T01:09:25.274Z,6.37
2022-11-24T01:12:10.295Z,6.41
2022-11-24T01:14:40.875Z,6.45
2022-11-24T01:17:10.934Z,6.21
2022-11-24T01:19:41.455Z,6.50
2022-11-24T01:22:11.416Z,6.36
2022-11-24T01:24:49.694Z,5.41
2022-11-24T01:27:23.040Z,6.22
2022-11-24T01:29:53.535Z,6.53
2022-11-24T01:32:24.740Z,6.03
2022-11-24T01:34:59.337Z,6.61
2022-11-24T01:37:31.015Z,6.64
2022-11-24T01:40:02.619Z,6.18
2022-11-24T01:42:45.720Z,6.23
2022-11-24T01:45:43.774Z,5.88
2022-11-24T01:48:19.092Z,5.53
2022-11-24T01:51:00.675Z,5.76
2022-11-24T01:53:32.016Z,5.87
2022-11-24T01:56:04.839Z,5.88
2022-11-24T01:58:35.575Z,6.10
2022-11-24T02:01:05.804Z,5.91
2022-11-24T02:03:40.128Z,6.03
2022-11-24T02:06:14.436Z,5.38
2022-11-24T02:08:47.640Z,5.20
2022-11-24T02:11:20.574Z,5.76
2022-11-24T02:13:54.198Z,5.10
2022-11-24T02:16:24.347Z,5.19
2022-11-24T02:18:55.324Z,5.61
2022-11-24T02:21:25.880Z,5.34
2022-11-24T02:24:01.794Z,5.30
2022-11-24T02:26:40.469Z,5.60
2022-11-24T02:29:14.556Z,6.21
2022-11-24T02:31:49.453Z,6.19
2022-11-24T02:34:23.299Z,5.47
2022-11-24T02:36:54.959Z,5.06
2022-11-24T02:39:32.924Z,5.55
2022-11-24T02:42:20.026Z,5.35
2022-11-24T02:44:54.439Z,5.79
2022-11-24T02:47:24.414Z,5.93
2022-11-24T02:49:57.820Z,5.74
2022-11-24T02:52:30.249Z,5.16
2022-11-24T02:55:03.214Z,5.35
2022-11-24T02:57:38.104Z,5.49
2022-11-24T03:00:09.694Z,5.06
2022-11-24T03:02:40.760Z,5.61
2022-11-24T03:05:12.180Z,4.88
2022-11-24T03:07:43.250Z,5.33
2022-11-24T03:10:13.775Z,5.20
2022-11-24T03:12:46.594Z,5.23
2022-11-24T03:15:16.734Z,5.34
2022-11-24T03:17:48.515Z,5.33
2022-11-24T03:20:19.554Z,5.98
2022-11-24T03:22:50.670Z,5.62
2022-11-24T03:25:20.606Z,5.43
2022-11-24T03:27:54.355Z,5.24
2022-11-24T03:30:24.190Z,5.57
2022-11-24T03:32:56.575Z,5.94
2022-11-24T03:35:28.357Z,5.54
2022-11-24T03:37:58.601Z,5.73
2022-11-24T03:40:31.656Z,5.72
2022-11-24T03:43:03.215Z,6.12
2022-11-24T03:45:46.011Z,5.49
2022-11-24T03:48:16.996Z,5.49
2022-11-24T03:50:55.300Z,5.20
2022-11-24T03:53:30.835Z,5.43
2022-11-24T03:56:04.505Z,4.89
2022-11-24T03:58:36.656Z,5.19
2022-11-24T04:01:06.275Z,5.24
2022-11-24T04:03:39.177Z,5.56
2022-11-24T04:06:09.537Z,5.62
2022-11-24T04:08:42.256Z,5.22
2022-11-24T04:11:32.975Z,5.78
2022-11-24T04:14:07.917Z,5.81
2022-11-24T04:16:45.922Z,5.97
2022-11-24T04:19:16.415Z,5.71
2022-11-24T04:21:46.416Z,5.90
2022-11-24T04:24:16.579Z,5.96
2022-11-24T04:26:46.199Z,6.10
2022-11-24T04:29:20.897Z,5.60
2022-11-24T04:31:51.833Z,5.68
2022-11-24T04:34:24.827Z,5.24
2022-11-24T04:36:57.876Z,5.49
2022-11-24T04:39:28.818Z,5.43
2022-11-24T04:42:00.418Z,5.30
2022-11-24T04:44:32.710Z,5.26
2022-11-24T04:47:05.275Z,5.87
2022-11-24T04:49:37.076Z,5.97
2022-11-24T04:52:07.155Z,5.54
2022-11-24T04:54:37.220Z,5.61
2022-11-24T04:57:07.696Z,5.92
2022-11-24T04:59:39.351Z,5.56
2022-11-24T05:02:10.507Z,5.56
2022-11-24T05:04:40.374Z,5.46
2022-11-24T05:07:18.052Z,5.61
2022-11-24T05:10:06.797Z,5.74
2022-11-24T05:12:36.555Z,5.44
2022-11-24T05:15:09.139Z,5.68
2022-11-24T05:17:40.690Z,5.05
2022-11-24T05:20:11.081Z,5.15
2022-11-24T05:22:40.841Z,5.77
2022-11-24T05:25:11.207Z,5.91
2022-11-24T05:27:56.817Z,5.88
2022-11-24T05:30:31.482Z,5.87
2022-11-24T05:33:08.471Z,5.78
2022-11-24T05:35:40.732Z,5.86
2022-11-24T05:38:12.537Z,5.76
2022-11-24T05:40:43.622Z,5.48
2022-11-24T05:43:17.856Z,4.91
2022-11-24T05:45:50.382Z,5.17
2022-11-24T05:48:21.057Z,5.40
2022-11-24T05:50:56.020Z,5.32
2022-11-24T05:53:27.225Z,5.85
2022-11-24T05:55:57.237Z,6.00
2022-11-24T05:58:31.495Z,5.36
2022-11-24T06:01:02.916Z,5.20
2022-11-24T06:03:32.757Z,5.27
2022-11-24T06:06:04.627Z,5.74
2022-11-24T06:08:36.377Z,5.52
2022-11-24T06:11:19.257Z,5.42
2022-11-24T06:13:50.299Z,5.92
2022-11-24T06:16:22.200Z,6.31
2022-11-24T06:18:52.555Z,5.96
2022-11-24T06:21:22.592Z,5.94
2022-11-24T06:23:56.010Z,6.19
2022-11-24T06:26:30.879Z,6.26
2022-11-24T06:29:00.722Z,6.01
2022-11-24T06:31:33.333Z,5.45
2022-11-24T06:34:03.926Z,5.67
2022-11-24T06:36:36.260Z,5.84
2022-11-24T06:39:08.965Z,5.56
2022-11-24T06:41:39.327Z,6.28
2022-11-24T06:44:09.674Z,6.11
2022-11-24T06:46:41.215Z,6.21
2022-11-24T06:49:12.814Z,4.88
2022-11-24T06:51:45.021Z,5.28
2022-11-24T06:54:22.779Z,5.61
2022-11-24T06:56:59.740Z,6.12
2022-11-24T06:59:33.710Z,5.77
2022-11-24T07:02:07.519Z,5.80
2022-11-24T07:04:39.035Z,6.16
2022-11-24T07:07:10.443Z,5.85
2022-11-24T07:09:42.410Z,6.09
2022-11-24T07:12:13.514Z,5.73
2022-11-24T07:14:43.675Z,6.30
2022-11-24T07:17:15.960Z,5.89
2022-11-24T07:19:46.255Z,5.64
2022-11-24T07:22:16.075Z,5.55
2022-11-24T07:24:47.365Z,5.93
2022-11-24T07:27:17.676Z,5.94
2022-11-24T07:29:47.590Z,5.66
2022-11-24T07:32:19.336Z,5.95
2022-11-24T07:34:51.311Z,5.92
2022-11-24T07:37:26.701Z,6.46
2022-11-24T07:39:59.995Z,6.62
2022-11-24T07:42:30.285Z,6.30
2022-11-24T07:45:00.235Z,6.51
2022-11-24T07:47:32.716Z,6.34
2022-11-24T07:50:04.665Z,6.38
2022-11-24T07:52:36.466Z,6.04
2022-11-24T07:55:10.088Z,5.48
2022-11-24T07:57:41.456Z,5.19
2022-11-24T08:00:13.844Z,5.62
2022-11-24T08:02:45.997Z,5.87
2022-11-24T08:05:16.375Z,6.40
2022-11-24T08:07:47.315Z,5.91
2022-11-24T08:10:18.396Z,5.78
2022-11-24T08:12:48.379Z,6.32
2022-11-24T08:15:18.335Z,6.17
2022-11-24T08:17:49.916Z,6.05
2022-11-24T08:20:22.121Z,6.46
2022-11-24T08:22:52.155Z,6.25
2022-11-24T08:25:24.759Z,5.81
2022-11-24T08:27:55.869Z,6.01
2022-11-24T08:30:29.371Z,6.64
2022-11-24T08:33:02.791Z,6.69
2022-11-24T08:35:33.355Z,6.59
2022-11-24T08:38:04.754Z,6.79
2022-11-24T08:40:35.326Z,6.45
2022-11-24T08:43:06.417Z,6.39
2022-11-24T08:45:41.424Z,6.92
2022-11-24T08:48:13.440Z,7.12
2022-11-24T08:50:44.815Z,6.99
2022-11-24T08:53:14.961Z,6.58
2022-11-24T08:55:45.096Z,6.13
2022-11-24T08:58:15.280Z,6.51
2022-11-24T09:00:47.401Z,6.91
2022-11-24T09:03:19.436Z,6.69
2022-11-24T09:05:52.127Z,6.97
2022-11-24T09:08:23.916Z,7.08
2022-11-24T09:10:54.900Z,6.64
2022-11-24T09:13:25.054Z,6.86
2022-11-24T09:15:55.116Z,6.25
2022-11-24T09:18:30.287Z,6.75
2022-11-24T09:21:09.376Z,6.98
2022-11-24T09:23:41.621Z,7.17
2022-11-24T09:26:15.176Z,6.92
2022-11-24T09:28:46.160Z,7.34
2022-11-24T09:31:18.680Z,7.47
2022-11-24T09:33:50.765Z,7.04
2022-11-24T09:36:21.935Z,7.76
2022-11-24T09:38:52.097Z,7.34
2022-11-24T09:41:51.195Z,7.59
2022-11-24T09:44:54.856Z,8.01
2022-11-24T09:47:39.375Z,7.60
2022-11-24T09:50:15.915Z,7.55
2022-11-24T09:52:51.400Z,7.58
2022-11-24T09:55:31.934Z,7.56
2022-11-24T09:58:17.415Z,7.67
2022-11-24T10:00:48.776Z,8.00
2022-11-24T10:03:30.257Z,7.79
2022-11-24T10:06:02.635Z,7.45
2022-11-24T10:08:49.721Z,7.60
2022-11-24T10:11:27.616Z,7.54
2022-11-24T10:14:24.096Z,7.16
2022-11-24T10:16:58.176Z,7.64
2022-11-24T10:19:40.593Z,7.61
2022-11-24T10:22:34.475Z,8.18
2022-11-24T10:25:10.778Z,8.06
2022-11-24T10:27:43.519Z,8.48
2022-11-24T10:30:17.684Z,8.54
2022-11-24T10:32:49.897Z,8.40
2022-11-24T10:35:22.875Z,8.71
2022-11-24T10:38:03.716Z,9.12
2022-11-24T10:43:29.935Z,8.61
2022-11-24T10:46:07.126Z,9.14
2022-11-24T10:48:42.418Z,8.89
2022-11-24T10:51:34.604Z,9.09
2022-11-24T10:54:12.396Z,8.75
2022-11-24T10:56:43.115Z,8.61
2022-11-24T10:59:36.612Z,8.80
2022-11-24T11:02:36.968Z,9.03
2022-11-24T11:05:30.821Z,9.66
2022-11-24T11:08:29.377Z,9.57
2022-11-24T11:11:23.990Z,9.52
2022-11-24T11:14:05.494Z,9.62
2022-11-24T11:16:37.618Z,9.77
2022-11-24T11:19:48.382Z,9.51
2022-11-24T11:22:29.031Z,9.79
2022-11-24T11:25:19.697Z,10.05
2022-11-24T11:27:52.125Z,10.04
2022-11-24T11:36:20.494Z,10.87
2022-11-24T11:38:52.237Z,10.68
2022-11-24T11:41:26.156Z,11.07
2022-11-24T11:44:06.955Z,10.63
2022-11-24T11:46:37.850Z,11.13
2022-11-24T11:49:10.175Z,10.82
2022-11-24T11:51:50.496Z,10.61
2022-11-24T11:54:28.300Z,10.55
2022-11-24T11:57:06.045Z,10.82
2022-11-24T12:00:03.415Z,10.89
2022-11-24T12:03:20.280Z,10.60
2022-11-24T12:05:55.775Z,10.47
2022-11-24T12:08:56.004Z,10.44
2022-11-24T12:11:29.919Z,10.56
2022-11-24T12:14:33.134Z,10.73
2022-11-24T12:17:12.260Z,10.52
2022-11-24T12:20:00.575Z,10.43
2022-11-24T12:22:37.296Z,10.46
2022-11-24T12:25:20.715Z,10.48
2022-11-24T12:28:00.615Z,10.64
2022-11-24T12:30:39.815Z,10.55
2022-11-24T12:33:37.534Z,10.57
2022-11-24T12:36:14.874Z,10.64
2022-11-24T12:38:54.795Z,10.79
2022-11-24T12:41:42.194Z,10.76
2022-11-24T12:44:23.376Z,10.60
2022-11-24T12:46:58.855Z,10.68
2022-11-24T12:49:35.848Z,10.73
2022-11-24T12:52:13.094Z,10.53
2022-11-24T12:54:43.497Z,10.55
2022-11-24T12:57:16.645Z,10.61
2022-11-24T12:59:50.795Z,10.55
2022-11-24T13:02:28.036Z,10.50
2022-11-24T13:05:06.075Z,10.49
2022-11-24T13:07:44.429Z,10.45
2022-11-24T13:10:55.877Z,10.54
2022-11-24T13:13:28.039Z,10.68
2022-11-24T13:19:11.359Z,10.74
2022-11-24T13:22:20.660Z,10.66
2022-11-24T13:25:15.919Z,10.80
2022-11-24T13:27:48.418Z,10.66
2022-11-24T13:30:53.305Z,10.57
2022-11-24T13:33:42.168Z,10.73
2022-11-24T13:36:34.401Z,10.76
2022-11-24T13:39:06.480Z,10.65
2022-11-24T13:42:42.579Z,10.60
2022-11-24T13:45:04.924Z,10.68
2022-11-24T13:47:38.934Z,10.63
2022-11-24T13:50:25.194Z,10.65
2022-11-24T13:53:02.079Z,10.59
2022-11-24T13:55:35.515Z,10.56
2022-11-24T13:58:28.762Z,10.50
2022-11-24T14:01:21.513Z,10.76
2022-11-24T14:07:07.417Z,10.45
2022-11-24T14:09:43.704Z,10.51
2022-11-24T14:12:18.474Z,10.41
2022-11-24T14:14:51.383Z,10.25
2022-11-24T14:17:25.035Z,10.16
2022-11-24T14:19:56.420Z,10.06
2022-11-24T14:22:28.155Z,9.99
2022-11-24T14:24:59.520Z,9.96
2022-11-24T14:27:32.316Z,9.84
2022-11-24T14:30:06.395Z,9.71
2022-11-24T14:32:38.075Z,9.56
2022-11-24T14:35:25.010Z,9.53
2022-11-24T14:37:55.195Z,9.55
2022-11-24T14:40:43.201Z,9.37
2022-11-24T14:43:24.534Z,9.25
2022-11-24T14:46:05.303Z,9.54
2022-11-24T14:48:40.017Z,9.32
2022-11-24T14:51:14.764Z,9.22
2022-11-24T14:53:45.936Z,9.12
2022-11-24T14:56:28.264Z,9.14
2022-11-24T14:58:59.624Z,9.12
2022-11-24T15:01:36.425Z,9.12
2022-11-24T15:04:39.037Z,8.98
2022-11-24T15:07:26.243Z,8.79
2022-11-24T15:09:58.898Z,8.74
2022-11-24T15:12:31.788Z,8.84
2022-11-24T15:15:04.840Z,8.78
2022-11-24T15:17:37.145Z,8.63
2022-11-24T15:20:18.149Z,9.01
2022-11-24T15:22:53.225Z,8.63
2022-11-24T15:28:53.570Z,8.59
2022-11-24T15:31:23.922Z,8.34
2022-11-24T15:33:55.776Z,8.64
2022-11-24T15:36:26.745Z,8.88
2022-11-24T15:38:57.076Z,8.76
2022-11-24T15:41:32.114Z,8.57
2022-11-24T15:44:02.757Z,8.49
2022-11-24T15:46:38.415Z,8.32
2022-11-24T15:49:10.854Z,8.30
2022-11-24T15:51:47.395Z,8.30
2022-11-24T15:54:18.534Z,8.13
2022-11-24T15:56:48.836Z,8.21
2022-11-24T15:59:21.271Z,8.49
2022-11-24T16:01:52.825Z,8.10
2022-11-24T16:04:24.174Z,8.26
2022-11-24T16:06:55.915Z,8.01
2022-11-24T16:09:26.474Z,8.10
2022-11-24T16:11:57.482Z,8.08
2022-11-24T16:14:27.690Z,7.91
2022-11-24T16:16:57.972Z,8.06
2022-11-24T16:19:29.217Z,7.85
2022-11-24T16:21:59.276Z,7.81
2022-11-24T16:24:29.240Z,7.83
2022-11-24T16:26:59.299Z,7.70
2022-11-24T16:29:31.824Z,7.86
2022-11-24T16:32:03.672Z,7.67
2022-11-24T16:34:41.836Z,7.70
2022-11-24T16:37:11.554Z,7.83
2022-11-24T16:40:08.365Z,8.13
2022-11-24T16:42:39.545Z,8.38
2022-11-24T16:45:15.596Z,8.38
2022-11-24T16:47:46.024Z,8.03
2022-11-24T16:50:18.046Z,7.77
2022-11-24T16:52:47.856Z,7.80
2022-11-24T16:55:19.796Z,8.20
2022-11-24T16:57:49.476Z,7.61
2022-11-24T17:00:20.095Z,7.81
2022-11-24T17:02:49.821Z,7.82
2022-11-24T17:05:21.315Z,7.62
2022-11-24T17:07:51.132Z,7.58
2022-11-24T17:10:21.476Z,7.53
2022-11-24T17:12:51.376Z,7.58
2022-11-24T17:15:33.637Z,7.63
2022-11-24T17:21:07.800Z,8.17
2022-11-24T17:23:41.296Z,7.54
2022-11-24T17:26:14.210Z,7.97
2022-11-24T17:28:45.517Z,8.02
2022-11-24T17:31:19.466Z,7.65
2022-11-24T17:36:36.956Z,7.74
2022-11-24T17:39:08.355Z,7.63
2022-11-24T17:41:44.658Z,7.36
2022-11-24T17:44:19.535Z,7.29
2022-11-24T17:46:49.057Z,7.26
2022-11-24T17:49:21.935Z,7.64
2022-11-24T17:51:55.708Z,7.88
2022-11-24T17:57:15.905Z,7.45
2022-11-24T17:59:46.836Z,7.85
2022-11-24T18:02:16.637Z,7.89
2022-11-24T18:04:46.623Z,7.63
2022-11-24T18:07:20.437Z,7.51
2022-11-24T18:09:50.418Z,6.97
2022-11-24T18:12:21.075Z,7.67
2022-11-24T18:14:51.085Z,7.81
2022-11-24T18:17:21.555Z,7.82
2022-11-24T18:19:51.441Z,6.89
2022-11-24T18:22:42.839Z,7.17
2022-11-24T18:25:13.333Z,7.43
2022-11-24T18:27:44.060Z,7.89
2022-11-24T18:30:14.717Z,7.12
2022-11-24T18:32:44.756Z,7.45
2022-11-24T18:35:14.381Z,7.26
2022-11-24T18:37:49.049Z,7.01
2022-11-24T18:40:21.467Z,7.50
2022-11-24T18:42:51.214Z,7.03
2022-11-24T18:45:25.758Z,7.11
2022-11-24T18:48:01.013Z,7.01
2022-11-24T18:50:38.390Z,7.34
2022-11-24T18:53:10.175Z,7.11
2022-11-24T18:55:41.584Z,7.00
2022-11-24T18:58:13.320Z,7.15
2022-11-24T19:00:45.362Z,7.30
2022-11-24T19:03:23.961Z,7.50
2022-11-24T19:05:54.945Z,7.22
2022-11-24T19:08:28.205Z,7.02
2022-11-24T19:10:59.636Z,6.66
2022-11-24T19:13:30.585Z,7.08
2022-11-24T19:16:02.400Z,6.82
2022-11-24T19:18:40.515Z,7.17
2022-11-24T19:21:12.805Z,7.23
2022-11-24T19:23:47.925Z,7.34
2022-11-24T19:26:18.288Z,6.83
2022-11-24T19:28:55.536Z,7.20
2022-11-24T19:31:36.660Z,6.52
2022-11-24T19:34:09.665Z,6.93
2022-11-24T19:36:46.140Z,6.78
2022-11-24T19:39:24.603Z,6.57
2022-11-24T19:42:00.741Z,6.78
2022-11-24T19:44:36.208Z,6.80
2022-11-24T19:47:12.527Z,6.82
2022-11-24T19:49:48.235Z,6.44
2022-11-24T19:52:22.866Z,7.01
2022-11-24T19:55:00.204Z,6.74
2022-11-24T19:57:42.944Z,6.27
2022-11-24T20:00:32.061Z,6.80
2022-11-24T20:03:05.547Z,6.16
2022-11-24T20:05:42.780Z,6.33
2022-11-24T20:08:14.766Z,6.42
2022-11-24T20:10:59.090Z,6.68
2022-11-24T20:13:32.251Z,6.43
2022-11-24T20:16:12.173Z,6.01
2022-11-24T20:18:45.376Z,6.14
2022-11-24T20:21:20.328Z,5.99
2022-11-24T20:23:57.500Z,6.73
2022-11-24T20:26:58.443Z,6.57
2022-11-24T20:29:36.044Z,6.80
2022-11-24T20:32:09.925Z,6.14
2022-11-24T20:34:40.205Z,6.31
2022-11-24T20:37:23.301Z,6.27
2022-11-24T20:40:13.230Z,6.28
2022-11-24T20:42:51.940Z,6.27
2022-11-24T20:45:25.431Z,6.15
2022-11-24T20:47:59.216Z,6.51
2022-11-24T20:50:30.516Z,6.52
2022-11-24T20:53:01.230Z,5.96
2022-11-24T20:55:34.119Z,6.58
2022-11-24T20:58:07.426Z,6.27
2022-11-24T21:00:38.686Z,6.18
2022-11-24T21:03:08.678Z,5.99
2022-11-24T21:05:39.199Z,6.44
2022-11-24T21:08:09.411Z,6.26
2022-11-24T21:10:40.032Z,6.12
2022-11-24T21:13:12.350Z,6.11
2022-11-24T21:15:44.185Z,5.78
2022-11-24T21:18:14.418Z,6.02
2022-11-24T21:20:45.341Z,5.64
2022-11-24T21:23:16.662Z,5.54
2022-11-24T21:25:46.785Z,5.69
2022-11-24T21:28:18.610Z,5.93
2022-11-24T21:30:50.060Z,5.61
2022-11-24T21:33:20.496Z,5.48
2022-11-24T21:35:50.666Z,5.70
2022-11-24T21:38:21.481Z,5.54
2022-11-24T21:40:51.599Z,5.46
2022-11-24T21:43:22.885Z,5.78
2022-11-24T21:45:54.161Z,5.63
2022-11-24T21:48:24.140Z,5.65
2022-11-24T21:50:54.060Z,5.72
2022-11-24T21:53:24.372Z,5.71
2022-11-24T21:55:57.245Z,5.95
2022-11-24T21:58:29.545Z,5.28
2022-11-24T22:01:07.251Z,5.10
2022-11-24T22:03:42.352Z,5.65
2022-11-24T22:06:12.276Z,5.36
2022-11-24T22:08:43.420Z,5.64
2022-11-24T22:11:15.090Z,5.72
2022-11-24T22:13:48.660Z,5.42
2022-11-24T22:16:19.752Z,5.70
2022-11-24T22:18:50.099Z,5.66
2022-11-24T22:21:22.966Z,5.57
2022-11-24T22:23:53.556Z,5.94
2022-11-24T22:26:26.310Z,5.63
2022-11-24T22:28:59.341Z,5.12
2022-11-24T22:31:35.617Z,4.95
2022-11-24T22:34:05.820Z,5.24
2022-11-24T22:36:36.834Z,5.16
2022-11-24T22:39:07.420Z,5.36
2022-11-24T22:41:38.120Z,5.13
2022-11-24T22:44:10.595Z,5.78
2022-11-24T22:46:40.678Z,5.18
2022-11-24T22:49:12.299Z,5.46
2022-11-24T22:51:44.556Z,5.16
2022-11-24T22:54:15.139Z,5.34
2022-11-24T22:56:45.075Z,4.79
2022-11-24T22:59:18.195Z,5.14
2022-11-24T23:01:47.580Z,4.99
2022-11-24T23:04:18.711Z,4.96
2022-11-24T23:06:49.075Z,5.21
2022-11-24T23:09:18.357Z,4.71
2022-11-24T23:11:49.695Z,4.87
2022-11-24T23:14:22.475Z,5.28
2022-11-24T23:16:52.917Z,4.75
2022-11-24T23:19:23.215Z,5.22
2022-11-24T23:21:54.675Z,4.94
2022-11-24T23:24:24.409Z,4.53
2022-11-24T23:26:55.660Z,5.08
2022-11-24T23:29:29.947Z,4.73
2022-11-24T23:32:02.452Z,5.18
2022-11-24T23:34:33.239Z,5.18
2022-11-24T23:37:03.696Z,4.55
2022-11-24T23:39:33.876Z,4.99
2022-11-24T23:42:04.815Z,5.09
2022-11-24T23:44:37.838Z,5.21
2022-11-24T23:47:08.782Z,4.97
2022-11-24T23:49:38.489Z,4.96
2022-11-24T23:52:08.756Z,5.29
2022-11-24T23:54:40.400Z,4.63
2022-11-24T23:57:10.895Z,5.09
2022-11-24T23:59:43.319Z,5.10
